Flight Track Log - Related Links

Times and Time Zones

All times are in EDT time to prevent confusion due to time zone crossing. See the N589H flight status page for this flight to view local times or setup timezone preferences in your user account.

Time Position Orientation Groundspeed Altitude Reporting Facility
EDT Latitude Longitude Course Direction KTS MPH feet Rate Location/Type
Thu 11:11:16 AM 39.1753 -80.2583 187° South 194 223 6,700  Level Cleveland Center
Thu 11:12:19 AM 39.1200 -80.2703 190° South 199 229 9,000 2,112 Climbing Cleveland Center
Thu 11:13:21 AM 39.0650 -80.2811 189° South 199 229 11,100 1,887 Climbing Cleveland Center
Thu 11:14:23 AM 39.0075 -80.2939 190° South 202 232 12,900 2,032 Climbing Cleveland Center
Thu 11:15:00 AM 38.7655 -80.2767 184° South  Level Estimated
Thu 11:15:25 AM 38.9347 -80.3044 186° South 213 245 15,300  Level Cleveland Center
Thu 11:16:00 AM 38.6768 -80.2848 187° South  Level Estimated
Thu 11:16:27 AM 38.8725 -80.3156 188° South 220 253 17,200  Level Cleveland Center
Thu 11:17:29 AM 38.8053 -80.3261 187° South 236 272 18,200 871 Climbing Cleveland Center
Thu 11:18:31 AM 38.7289 -80.3383 187° South 270 311 19,000 387 Climbing Cleveland Center
Thu 11:19:33 AM 38.6436 -80.3494 186° South 302 348 19,000 97 Level Cleveland Center
Thu 11:20:35 AM 38.5556 -80.3658 188° South 317 365 19,200 1,161 Climbing Cleveland Center
Thu 11:21:37 AM 38.4558 -80.3803 186° South 302 348 21,400 1,955 Climbing Cleveland Center
Thu 11:22:47 AM 38.3711 -80.3986 190° South 295 339 23,500 1,615 Climbing Washington Center
Thu 11:23:47 AM 38.2975 -80.4097 187° South 277 319 24,900 1,424 Climbing Washington Center
Thu 11:24:45 AM 38.2222 -80.4181 185° South 277 319 26,300 1,311 Climbing Washington Center
Thu 11:25:46 AM 38.1469 -80.4236 183° South 277 319 27,500 1,131 Climbing Washington Center
Thu 11:26:47 AM 38.0717 -80.4294 183° South 277 319 28,600 1,008 Climbing Washington Center
Thu 11:27:45 AM 37.9939 -80.4375 185° South 277 319 29,500 1,008 Climbing Washington Center
Thu 11:28:46 AM 37.9189 -80.4406 182° South 277 319 30,600 984 Climbing Washington Center
Thu 11:29:47 AM 37.8433 -80.4489 185° South 277 319 31,500 744 Climbing Washington Center
Thu 11:30:47 AM 37.7742 -80.4550 184° South 277 319 32,100 458 Climbing Washington Center
Thu 11:31:45 AM 37.6947 -80.4603 183° South 277 319 32,400 403 Climbing Washington Center
Thu 11:32:46 AM 37.6133 -80.4656 183° South 283 326 32,900 497 Climbing Washington Center
Thu 11:34:46 AM 37.4472 -80.4761 183° South 309 356 33,900 333 Climbing Atlanta Center
Thu 11:35:46 AM 37.3622 -80.4853 185° South 309 356 33,900  Level Atlanta Center
Thu 11:36:46 AM 37.2769 -80.4892 182° South 309 356 33,900  Level Atlanta Center
Thu 11:37:46 AM 37.1875 -80.4958 183° South 309 356 33,900  Level Atlanta Center
Thu 11:38:46 AM 37.0958 -80.5025 183° South 314 361 33,900  Level Atlanta Center
Thu 11:39:46 AM 37.0086 -80.5117 185° South 314 361 33,900 50 Level Atlanta Center
Thu 11:40:46 AM 36.9189 -80.5156 182° South 319 367 34,000  Climbing Atlanta Center
Thu 11:41:46 AM 36.8294 -80.5222 183° South 319 367 33,900 -50 Descending Atlanta Center
Thu 11:42:46 AM 36.7422 -80.5286 183° South 319 367 33,900  Level Atlanta Center
Thu 11:43:46 AM 36.6547 -80.5350 183° South 324 373 33,900  Level Atlanta Center
Thu 11:44:46 AM 36.5653 -80.5417 183° South 324 373 33,900  Level Atlanta Center
Thu 11:45:46 AM 36.4758 -80.5506 185° South 324 373 33,900  Level Atlanta Center
Thu 11:46:46 AM 36.3883 -80.5544 182° South 324 373 33,900  Level Atlanta Center
Thu 11:47:46 AM 36.2989 -80.5608 183° South 324 373 33,900  Level Atlanta Center
Thu 11:48:46 AM 36.2114 -80.5672 183° South 324 373 33,900  Level Atlanta Center
Thu 11:49:46 AM 36.1242 -80.5736 183° South 324 373 33,900  Level Atlanta Center
Thu 11:50:46 AM 36.0367 -80.5800 183° South 324 373 33,900  Level Atlanta Center
Thu 11:51:46 AM 35.9367 -80.5892 184° South 324 373 33,900  Level Atlanta Center
Thu 11:52:46 AM 35.8450 -80.5931 182° South 330 380 33,900  Level Atlanta Center
Thu 11:53:46 AM 35.7578 -80.6019 185° South 325 374 33,900  Level Atlanta Center
Thu 11:54:46 AM 35.6683 -80.6108 185° South 325 374 33,900  Level Atlanta Center
Thu 11:55:46 AM 35.5767 -80.6147 182° South 325 374 33,900  Level Atlanta Center
Thu 11:56:46 AM 35.4869 -80.6211 183° South 325 374 33,900  Level Atlanta Center
Thu 11:57:46 AM 35.3975 -80.6272 183° South 325 374 33,900  Level Atlanta Center
Thu 11:58:46 AM 35.3061 -80.6386 186° South 325 374 33,900  Level Atlanta Center
Thu 11:59:46 AM 35.2144 -80.6450 183° South 325 374 33,900  Level Atlanta Center
Thu 12:01:57 PM 35.0267 -80.6594 184° South 327 376 33,900  Level Jacksonville Center
Thu 12:02:57 PM 34.9350 -80.6692 185° South 327 376 33,900  Level Jacksonville Center
Thu 12:03:57 PM 34.8453 -80.6717 181° South 327 376 33,900  Level Jacksonville Center
Thu 12:04:57 PM 34.7578 -80.6814 185° South 327 376 33,900  Level Jacksonville Center
Thu 12:05:57 PM 34.6661 -80.6864 183° South 327 376 33,900  Level Jacksonville Center
Thu 12:06:57 PM 34.5767 -80.6911 182° South 327 376 33,900  Level Jacksonville Center
Thu 12:07:57 PM 34.4808 -80.7011 185° South 332 382 33,900  Level Jacksonville Center
Thu 12:09:57 PM 34.2956 -80.7208 183° South 335 386 33,900  Level Jacksonville Center
Thu 12:10:57 PM 34.2078 -80.7181 179° South 327 376 33,900  Level Jacksonville Center
Thu 12:11:57 PM 34.1161 -80.7253 184° South 332 382 33,900  Level Jacksonville Center
Thu 12:12:57 PM 34.0244 -80.7303 183° South 332 382 33,900  Level Jacksonville Center
Thu 12:13:57 PM 33.9328 -80.7375 184° South 327 376 33,900  Level Jacksonville Center
Thu 12:14:57 PM 33.8411 -80.7447 184° South 327 376 33,900  Level Jacksonville Center
Thu 12:15:57 PM 33.7494 -80.7519 184° South 327 376 33,900  Level Jacksonville Center
Thu 12:16:57 PM 33.6597 -80.7592 184° South 327 376 33,900  Level Jacksonville Center
Thu 12:17:57 PM 33.5681 -80.7639 182° South 327 376 33,900  Level Jacksonville Center
Thu 12:18:57 PM 33.4764 -80.7711 184° South 327 376 33,900  Level Jacksonville Center
Thu 12:19:57 PM 33.3847 -80.7806 185° South 327 376 33,900  Level Jacksonville Center
Thu 12:20:57 PM 33.2931 -80.7928 186° South 327 376 33,900  Level Jacksonville Center
Thu 12:21:57 PM 33.2036 -80.8072 188° South 327 376 33,900  Level Jacksonville Center
Thu 12:22:57 PM 33.1097 -80.8194 186° South 332 382 33,900  Level Jacksonville Center
Thu 12:23:57 PM 33.0203 -80.8314 186° South 332 382 33,900  Level Jacksonville Center
Thu 12:24:57 PM 32.9267 -80.8458 187° South 332 382 33,900  Level Jacksonville Center
Thu 12:25:57 PM 32.8244 -80.8581 186° South 332 382 33,900  Level Jacksonville Center
Thu 12:26:57 PM 32.7350 -80.8700 186° South 332 382 33,900  Level Jacksonville Center
Thu 12:27:57 PM 32.6411 -80.8819 186° South 332 382 33,900 -650 Level Jacksonville Center
Thu 12:28:57 PM 32.5475 -80.8939 186° South 346 398 32,600 -1,450 Descending Jacksonville Center
Thu 12:29:57 PM 32.4453 -80.9083 187° South 368 423 31,000 -1,500 Descending Jacksonville Center
Thu 12:30:57 PM 32.3536 -80.9228 188° South 368 423 29,600 -1,400 Descending Jacksonville Center
Thu 12:31:57 PM 32.2433 -80.9375 186° South 368 423 28,200 -1,200 Descending Jacksonville Center
Thu 12:32:57 PM 32.1433 -80.9494 186° South 368 423 27,200 -1,000 Descending Jacksonville Center
Thu 12:33:57 PM 32.0536 -80.9636 188° South 368 423 26,200 -1,050 Descending Jacksonville Center
Thu 12:34:57 PM 31.9433 -80.9781 186° South 368 423 25,100 -1,050 Descending Jacksonville Center
Thu 12:35:57 PM 31.8411 -80.9925 187° South 368 423 24,100 -650 Descending Jacksonville Center
Thu 12:36:57 PM 31.7558 -81.0039 186° South 368 423 23,800 -700 Descending Jacksonville Center
Thu 12:37:57 PM 31.6475 -81.0183 186° South 363 418 22,700 -900 Descending Jacksonville Center
Thu 12:38:57 PM 31.5600 -81.0297 186° South 363 418 22,000 -350 Descending Jacksonville Center
Thu 12:39:57 PM 31.4558 -81.0467 188° South 350 403 22,000  Level Jacksonville Center
Thu 12:40:57 PM 31.3600 -81.0581 186° South 350 403 22,000  Level Jacksonville Center
Thu 12:41:57 PM 31.2725 -81.0719 188° South 350 403 22,000  Level Jacksonville Center
Thu 12:42:57 PM 31.1786 -81.0811 185° South 350 403 22,000 -150 Level Jacksonville Center
Thu 12:43:57 PM 31.0828 -81.0928 186° South 350 403 21,700 -1,350 Descending Jacksonville Center
Thu 12:44:57 PM 30.9869 -81.1067 187° South 355 409 19,300 -2,300 Descending Jacksonville Center
Thu 12:45:57 PM 30.8931 -81.1231 189° South 350 403 17,100 -1,650 Descending Jacksonville Center
Thu 12:46:57 PM 30.8033 -81.1319 185° South 345 397 16,000 -550 Descending Jacksonville Center
Thu 12:47:57 PM 30.7117 -81.1456 187° South 338 389 16,000  Level Jacksonville Center
Thu 12:48:57 PM 30.6200 -81.1544 185° South 333 383 16,000  Level Jacksonville Center
Thu 12:49:57 PM 30.5175 -81.1467 176° South 328 377 16,000  Level Jacksonville Center
Thu 12:50:57 PM 30.4236 -81.1411 177° South 328 377 16,000  Level Jacksonville Center
Thu 12:51:57 PM 30.3419 -81.1331 175° South 328 377 16,000  Level Jacksonville Center
Thu 12:52:57 PM 30.2397 -81.1278 177° South 334 384 16,000  Level Jacksonville Center
Thu 12:53:57 PM 30.1456 -81.1222 177° South 334 384 16,000 -500 Level Jacksonville Center
Thu 12:54:57 PM 30.0536 -81.1144 176° South 334 384 15,000 -1,100 Descending Jacksonville Center
Thu 12:55:57 PM 29.9617 -81.1114 178° South 329 379 13,800 -1,263 Descending Jacksonville Center
Thu 12:56:13 PM 29.9389 -81.1094 176° South 324 373 13,400 -1,200 Descending Jacksonville Center
Thu 12:56:57 PM 29.8742 -81.1058 177° South 329 379 12,600 -1,082 Descending Jacksonville Center
Thu 12:57:14 PM 29.8511 -81.1036 175° South 319 367 12,300 -800 Descending Jacksonville Center
Thu 12:57:57 PM 29.7883 -81.1025 179° South 324 373 11,800 -984 Descending Jacksonville Center
Thu 12:58:15 PM 29.7569 -81.0983 173° South 311 358 11,300 -1,500 Descending Jacksonville Center
Thu 12:58:57 PM 29.7028 -81.0944 176° South 319 367 10,300 -1,574 Descending Jacksonville Center
Thu 12:59:16 PM 29.6733 -81.0928 177° South 305 351 9,700 -1,700 Descending Jacksonville Center
Thu 12:59:57 PM 29.6192 -81.0889 176° South 309 356 8,600 -1,574 Descending Jacksonville Center
Thu 01:00:17 PM 29.5897 -81.0869 177° South 294 338 8,100 3,400 Descending Jacksonville Center
Thu 01:00:57 PM 29.5397 -81.0833 176° South 302 348 12,000 -1,475 Climbing Jacksonville Center
Thu 01:01:18 PM 29.5083 -81.0814 177° South 280 322 6,600 -6,200 Descending Jacksonville Center
Thu 01:01:57 PM 29.4686 -81.0772 175° South 291 335 5,800 -1,475 Descending Jacksonville Center
Thu 01:02:19 PM 29.4289 -81.0756 178° South 273 314 5,100 -1,300 Descending Jacksonville Center
Thu 01:02:57 PM 29.3933 -81.0739 178° South 286 329 4,500 -1,082 Descending Jacksonville Center
Thu 01:03:20 PM 29.3558 -81.0794 187° South 269 310 4,000 -500 Descending Jacksonville Center
Thu 01:03:57 PM 29.3186 -81.0872 190° South 276 318 4,000  Level Jacksonville Center
Thu 01:04:21 PM 29.2811 -81.0975 193° South 264 304 4,000  Level Jacksonville Center
Thu 01:04:57 PM 29.2539 -81.1028 190° South 263 303 4,000  Level Jacksonville Center
Thu 01:05:22 PM 29.2336 -81.1317 231° Southwest 208 239 4,000 -698 Level Jacksonville Center
Thu 01:06:23 PM 29.2008 -81.1844 235° Southwest 205 236 3,000 -469 Descending Jacksonville Center
Thu 01:07:30 PM 29.1619 -81.2375 230° Southwest 190 219 3,000 -520 Level Jacksonville Center
Thu 01:08:30 PM 29.1292 -81.2856 232° Southwest 222 255 1,900 -694 Descending Jacksonville Center
Thu 01:09:31 PM 29.1036 -81.2481 128° Southeast 179 206 1,600 -146 Descending Jacksonville Center
Thu 01:10:33 PM 29.1236 -81.1931 67° East 188 216 1,600 -197 Level Jacksonville Center
Thu 01:11:33 PM 29.1461 -81.1428 63° Northeast 153 176 1,200 -545 Descending Jacksonville Center
Thu 01:12:34 PM 29.1622 -81.0997 67° East 153 176 500 -689 Descending Jacksonville Center
Thu 01:14:00 PM 29.1667 -81.0500 76° East  Level FlightAware Approximate
Thu 01:21:00 PM 29.1799 -81.0581 76° East  Level Estimated
Thu 01:22:00 PM 29.1799 -81.0581 252° West  Level Estimated
Thu 01:23:00 PM 29.1799 -81.0581 252° West  Level Estimated

Login

Don't have an account? Register now (free) for customized features, flight alerts, and more!